SBCR

Details ICAO SBCR (CMG)
Name CORUMBA INTL
Region Brazil
Timezone America/Campo_Grande (UTC-4.0)
Plans Departing 14
Arriving 16
Stats Elevation 461 ft / 141 m (AMSL)
Location -19.011930° -57.673051°
Runways 1
Magnetic Variation 15.866° W
Sunrise 2018-05-24 10:15:14 UTC / 2018-05-24 06:15:14 Local
Sunset 2018-05-24 21:22:43 UTC / 2018-05-24 17:22:43 Local
Advertisement - Login to hide

Runways

ID Width Length Bearing (true) Bearing (mag) Surface Threshold Offset Overrun Length
09 148 ft / 45 m 6,567 ft / 2,002 m 74.62° 90.49° Asphalt 0 ft / 0 m 197 ft / 60 m
27 148 ft / 45 m 6,567 ft / 2,002 m 254.62° 270.49° Asphalt 0 ft / 0 m 197 ft / 60 m

Map

Weather


0- 5 10 15 20 25 30 35+ Temperature / ° C

Clouds and Precipitation
Forecast for 2018-05-24 12:00 UTC. Updated 5 hours ago

Ground ~20,000 ft ~40,000 ft Winds

METAR

SBCR 241500Z 28007KT CAVOK 25/17 Q1021

TAF

TAF SBCR 240945Z 2412/2512 18006KT CAVOK TX30/2418Z TN18/2509Z RMK PEB

Frequencies

Tower 119.50 MHz RDO
Approach 119.50 MHz APP
Warning: Do not use this data for real-world aviation or navigation. No guarantee of current accuracy is given.